sensor_id;sensor_type;location;lat;lon;timestamp;pressure;altitude;pressure_sealevel;temperature;humidity
28448;BME280;15675;52.870;-1.416;2023-12-04T00:00:03;99750.56;;;3.31;100.00
28448;BME280;15675;52.870;-1.416;2023-12-04T00:02:29;99747.81;;;3.20;100.00
28448;BME280;15675;52.870;-1.416;2023-12-04T00:04:55;99749.19;;;3.01;100.00
28448;BME280;15675;52.870;-1.416;2023-12-04T00:07:20;99747.16;;;3.30;100.00
28448;BME280;15675;52.870;-1.416;2023-12-04T00:09:46;99742.50;;;3.09;100.00
28448;BME280;15675;52.870;-1.416;2023-12-04T00:12:11;99741.22;;;2.85;100.00
28448;BME280;15675;52.870;-1.416;2023-12-04T00:14:37;99743.16;;;2.99;100.00
28448;BME280;15675;52.870;-1.416;2023-12-04T00:17:02;99740.06;;;3.15;100.00
28448;BME280;15675;52.870;-1.416;2023-12-04T00:19:28;99742.88;;;3.31;100.00
28448;BME280;15675;52.870;-1.416;2023-12-04T00:21:54;99731.34;;;3.57;100.00
28448;BME280;15675;52.870;-1.416;2023-12-04T00:24:19;99727.09;;;3.09;100.00
28448;BME280;15675;52.870;-1.416;2023-12-04T00:26:45;99730.56;;;3.11;100.00
28448;BME280;15675;52.870;-1.416;2023-12-04T00:29:10;99727.47;;;3.31;100.00
28448;BME280;15675;52.870;-1.416;2023-12-04T00:31:36;99726.63;;;3.82;100.00
28448;BME280;15675;52.870;-1.416;2023-12-04T00:34:02;99726.28;;;4.19;100.00
28448;BME280;15675;52.870;-1.416;2023-12-04T00:36:28;99712.88;;;3.80;100.00
28448;BME280;15675;52.870;-1.416;2023-12-04T00:38:53;99709.47;;;3.79;100.00
28448;BME280;15675;52.870;-1.416;2023-12-04T00:41:19;99701.03;;;3.88;100.00
28448;BME280;15675;52.870;-1.416;2023-12-04T00:43:44;99687.16;;;3.75;100.00
28448;BME280;15675;52.870;-1.416;2023-12-04T00:46:09;99687.41;;;3.37;100.00
28448;BME280;15675;52.870;-1.416;2023-12-04T00:48:35;99675.88;;;3.12;100.00
28448;BME280;15675;52.870;-1.416;2023-12-04T00:51:01;99673.44;;;3.20;100.00
28448;BME280;15675;52.870;-1.416;2023-12-04T00:53:26;99668.47;;;3.31;100.00
28448;BME280;15675;52.870;-1.416;2023-12-04T00:55:52;99667.59;;;3.27;100.00
28448;BME280;15675;52.870;-1.416;2023-12-04T00:58:17;99675.56;;;3.44;100.00
28448;BME280;15675;52.870;-1.416;2023-12-04T01:00:43;99656.88;;;3.53;100.00
28448;BME280;15675;52.870;-1.416;2023-12-04T01:03:08;99653.72;;;3.16;100.00
28448;BME280;15675;52.870;-1.416;2023-12-04T01:05:34;99646.88;;;3.18;100.00
28448;BME280;15675;52.870;-1.416;2023-12-04T01:07:59;99645.00;;;3.07;100.00
28448;BME280;15675;52.870;-1.416;2023-12-04T01:10:25;99644.56;;;3.32;100.00
28448;BME280;15675;52.870;-1.416;2023-12-04T01:12:50;99643.75;;;3.34;100.00
28448;BME280;15675;52.870;-1.416;2023-12-04T01:15:16;99638.81;;;3.45;100.00
28448;BME280;15675;52.870;-1.416;2023-12-04T01:17:41;99638.22;;;3.65;100.00
28448;BME280;15675;52.870;-1.416;2023-12-04T01:20:07;99627.88;;;3.60;100.00
28448;BME280;15675;52.870;-1.416;2023-12-04T01:22:33;99618.56;;;3.63;100.00
28448;BME280;15675;52.870;-1.416;2023-12-04T01:24:58;99613.41;;;3.62;100.00
28448;BME280;15675;52.870;-1.416;2023-12-04T01:27:24;99606.13;;;3.35;100.00
28448;BME280;15675;52.870;-1.416;2023-12-04T01:29:49;99598.91;;;3.69;100.00
28448;BME280;15675;52.870;-1.416;2023-12-04T01:32:15;99597.31;;;3.75;100.00
28448;BME280;15675;52.870;-1.416;2023-12-04T01:34:40;99592.19;;;3.75;100.00
28448;BME280;15675;52.870;-1.416;2023-12-04T01:37:06;99588.59;;;3.62;100.00
28448;BME280;15675;52.870;-1.416;2023-12-04T01:39:31;99586.63;;;3.46;100.00
28448;BME280;15675;52.870;-1.416;2023-12-04T01:41:57;99581.94;;;3.77;100.00
28448;BME280;15675;52.870;-1.416;2023-12-04T01:44:22;99579.69;;;3.40;100.00
28448;BME280;15675;52.870;-1.416;2023-12-04T01:46:49;99576.25;;;3.38;100.00
28448;BME280;15675;52.870;-1.416;2023-12-04T01:49:14;99572.19;;;3.53;100.00
28448;BME280;15675;52.870;-1.416;2023-12-04T01:51:40;99566.44;;;3.69;100.00
28448;BME280;15675;52.870;-1.416;2023-12-04T01:54:06;99557.84;;;3.67;100.00
28448;BME280;15675;52.870;-1.416;2023-12-04T01:56:34;99564.28;;;3.39;100.00
28448;BME280;15675;52.870;-1.416;2023-12-04T01:59:01;99554.63;;;3.19;100.00
28448;BME280;15675;52.870;-1.416;2023-12-04T02:01:28;99546.94;;;3.21;100.00
28448;BME280;15675;52.870;-1.416;2023-12-04T02:03:54;99550.13;;;3.67;100.00
28448;BME280;15675;52.870;-1.416;2023-12-04T02:06:19;99552.66;;;3.64;100.00
28448;BME280;15675;52.870;-1.416;2023-12-04T02:08:46;99541.41;;;3.54;100.00
28448;BME280;15675;52.870;-1.416;2023-12-04T02:11:12;99539.19;;;3.80;100.00
28448;BME280;15675;52.870;-1.416;2023-12-04T02:13:38;99535.03;;;3.92;100.00
28448;BME280;15675;52.870;-1.416;2023-12-04T02:16:05;99535.78;;;3.82;100.00
28448;BME280;15675;52.870;-1.416;2023-12-04T02:18:34;99532.34;;;3.81;100.00
28448;BME280;15675;52.870;-1.416;2023-12-04T02:21:01;99530.84;;;3.31;100.00
28448;BME280;15675;52.870;-1.416;2023-12-04T02:23:27;99530.94;;;3.40;100.00
28448;BME280;15675;52.870;-1.416;2023-12-04T02:25:59;99527.59;;;3.46;100.00
28448;BME280;15675;52.870;-1.416;2023-12-04T02:28:32;99527.72;;;3.52;100.00
28448;BME280;15675;52.870;-1.416;2023-12-04T02:30:59;99513.16;;;3.53;100.00
28448;BME280;15675;52.870;-1.416;2023-12-04T02:33:27;99508.97;;;3.58;100.00
28448;BME280;15675;52.870;-1.416;2023-12-04T02:35:55;99504.63;;;3.54;100.00
28448;BME280;15675;52.870;-1.416;2023-12-04T02:38:21;99496.06;;;3.53;100.00
28448;BME280;15675;52.870;-1.416;2023-12-04T02:40:46;99504.91;;;3.75;100.00
28448;BME280;15675;52.870;-1.416;2023-12-04T02:43:12;99498.75;;;3.62;100.00
28448;BME280;15675;52.870;-1.416;2023-12-04T02:45:38;99499.06;;;3.90;100.00
28448;BME280;15675;52.870;-1.416;2023-12-04T02:48:04;99495.66;;;3.90;100.00
28448;BME280;15675;52.870;-1.416;2023-12-04T02:50:30;99495.56;;;3.80;100.00
28448;BME280;15675;52.870;-1.416;2023-12-04T02:52:55;99484.50;;;3.88;100.00
28448;BME280;15675;52.870;-1.416;2023-12-04T02:55:21;99489.75;;;4.00;100.00
28448;BME280;15675;52.870;-1.416;2023-12-04T02:57:48;99480.31;;;3.97;100.00
28448;BME280;15675;52.870;-1.416;2023-12-04T03:00:14;99464.97;;;4.02;100.00
28448;BME280;15675;52.870;-1.416;2023-12-04T03:02:40;99469.13;;;3.91;100.00
28448;BME280;15675;52.870;-1.416;2023-12-04T03:05:05;99467.63;;;4.10;100.00
28448;BME280;15675;52.870;-1.416;2023-12-04T03:07:31;99458.75;;;3.82;100.00
28448;BME280;15675;52.870;-1.416;2023-12-04T03:09:57;99461.34;;;3.83;100.00
28448;BME280;15675;52.870;-1.416;2023-12-04T03:12:22;99455.38;;;3.84;100.00
28448;BME280;15675;52.870;-1.416;2023-12-04T03:14:48;99455.38;;;3.84;100.00
28448;BME280;15675;52.870;-1.416;2023-12-04T03:17:14;99463.38;;;4.12;100.00
28448;BME280;15675;52.870;-1.416;2023-12-04T03:19:40;99444.00;;;4.49;100.00
28448;BME280;15675;52.870;-1.416;2023-12-04T03:22:05;99436.13;;;4.31;100.00
28448;BME280;15675;52.870;-1.416;2023-12-04T03:24:31;99436.09;;;4.25;100.00
28448;BME280;15675;52.870;-1.416;2023-12-04T03:26:56;99425.88;;;4.36;100.00
28448;BME280;15675;52.870;-1.416;2023-12-04T03:29:22;99426.00;;;4.49;100.00
28448;BME280;15675;52.870;-1.416;2023-12-04T03:31:47;99425.84;;;4.31;100.00
28448;BME280;15675;52.870;-1.416;2023-12-04T03:34:13;99423.28;;;4.31;100.00
28448;BME280;15675;52.870;-1.416;2023-12-04T03:36:38;99419.09;;;4.42;100.00
28448;BME280;15675;52.870;-1.416;2023-12-04T03:39:04;99414.75;;;4.35;100.00
28448;BME280;15675;52.870;-1.416;2023-12-04T03:41:29;99412.38;;;4.61;100.00
28448;BME280;15675;52.870;-1.416;2023-12-04T03:43:55;99408.19;;;4.74;100.00
28448;BME280;15675;52.870;-1.416;2023-12-04T03:46:20;99396.13;;;4.61;100.00
28448;BME280;15675;52.870;-1.416;2023-12-04T03:48:46;99390.75;;;4.35;100.00
28448;BME280;15675;52.870;-1.416;2023-12-04T03:51:11;99380.38;;;4.19;100.00
28448;BME280;15675;52.870;-1.416;2023-12-04T03:53:37;99374.50;;;4.37;100.00
28448;BME280;15675;52.870;-1.416;2023-12-04T03:56:02;99373.88;;;4.66;100.00
28448;BME280;15675;52.870;-1.416;2023-12-04T03:58:28;99367.09;;;4.80;100.00
28448;BME280;15675;52.870;-1.416;2023-12-04T04:00:53;99361.97;;;4.80;100.00
28448;BME280;15675;52.870;-1.416;2023-12-04T04:03:19;99358.59;;;4.98;100.00
28448;BME280;15675;52.870;-1.416;2023-12-04T04:05:45;99352.56;;;4.90;100.00
28448;BME280;15675;52.870;-1.416;2023-12-04T04:08:10;99352.50;;;4.78;100.00
28448;BME280;15675;52.870;-1.416;2023-12-04T04:10:36;99355.91;;;4.72;100.00
28448;BME280;15675;52.870;-1.416;2023-12-04T04:13:02;99354.03;;;4.46;100.00
28448;BME280;15675;52.870;-1.416;2023-12-04T04:15:28;99348.75;;;4.25;100.00
28448;BME280;15675;52.870;-1.416;2023-12-04T04:17:53;99347.75;;;4.09;100.00
28448;BME280;15675;52.870;-1.416;2023-12-04T04:20:19;99348.44;;;3.88;100.00
28448;BME280;15675;52.870;-1.416;2023-12-04T04:22:47;99344.31;;;4.08;100.00
28448;BME280;15675;52.870;-1.416;2023-12-04T04:25:13;99342.00;;;4.41;100.00
28448;BME280;15675;52.870;-1.416;2023-12-04T04:27:38;99335.81;;;4.17;100.00
28448;BME280;15675;52.870;-1.416;2023-12-04T04:30:04;99328.38;;;4.57;100.00
28448;BME280;15675;52.870;-1.416;2023-12-04T04:32:30;99320.75;;;4.70;100.00
28448;BME280;15675;52.870;-1.416;2023-12-04T04:34:56;99329.47;;;4.98;100.00
28448;BME280;15675;52.870;-1.416;2023-12-04T04:37:21;99323.50;;;5.11;100.00
28448;BME280;15675;52.870;-1.416;2023-12-04T04:39:47;99315.63;;;4.77;100.00
28448;BME280;15675;52.870;-1.416;2023-12-04T04:42:12;99305.31;;;4.68;100.00
28448;BME280;15675;52.870;-1.416;2023-12-04T04:44:38;99306.06;;;4.45;100.00
28448;BME280;15675;52.870;-1.416;2023-12-04T04:47:03;99301.94;;;4.72;100.00
28448;BME280;15675;52.870;-1.416;2023-12-04T04:49:29;99300.19;;;4.71;100.00
28448;BME280;15675;52.870;-1.416;2023-12-04T04:51:54;99296.84;;;4.84;100.00
28448;BME280;15675;52.870;-1.416;2023-12-04T04:54:20;99294.28;;;4.84;100.00
28448;BME280;15675;52.870;-1.416;2023-12-04T04:56:45;99284.00;;;4.89;100.00
28448;BME280;15675;52.870;-1.416;2023-12-04T04:59:11;99282.22;;;4.76;100.00
28448;BME280;15675;52.870;-1.416;2023-12-04T05:01:37;99278.84;;;4.84;100.00
28448;BME280;15675;52.870;-1.416;2023-12-04T05:04:02;99283.19;;;4.98;100.00
28448;BME280;15675;52.870;-1.416;2023-12-04T05:06:28;99276.19;;;4.68;100.00
28448;BME280;15675;52.870;-1.416;2023-12-04T05:08:54;99279.66;;;4.77;100.00
28448;BME280;15675;52.870;-1.416;2023-12-04T05:11:19;99282.25;;;4.80;100.00
28448;BME280;15675;52.870;-1.416;2023-12-04T05:13:45;99275.47;;;5.03;100.00
28448;BME280;15675;52.870;-1.416;2023-12-04T05:16:11;99273.72;;;4.86;100.00
28448;BME280;15675;52.870;-1.416;2023-12-04T05:18:38;99278.03;;;4.96;100.00
28448;BME280;15675;52.870;-1.416;2023-12-04T05:21:10;99270.31;;;5.03;100.00
28448;BME280;15675;52.870;-1.416;2023-12-04T05:23:37;99272.09;;;5.21;100.00
28448;BME280;15675;52.870;-1.416;2023-12-04T05:26:02;99266.06;;;5.03;100.00
28448;BME280;15675;52.870;-1.416;2023-12-04T05:28:28;99263.50;;;5.20;100.00
28448;BME280;15675;52.870;-1.416;2023-12-04T05:30:54;99266.09;;;5.22;100.00
28448;BME280;15675;52.870;-1.416;2023-12-04T05:33:19;99256.59;;;4.97;100.00
28448;BME280;15675;52.870;-1.416;2023-12-04T05:35:47;99251.53;;;5.22;100.00
28448;BME280;15675;52.870;-1.416;2023-12-04T05:38:13;99247.22;;;5.23;100.00
28448;BME280;15675;52.870;-1.416;2023-12-04T05:40:38;99251.56;;;5.45;100.00
28448;BME280;15675;52.870;-1.416;2023-12-04T05:43:04;99247.25;;;5.44;100.00
28448;BME280;15675;52.870;-1.416;2023-12-04T05:45:29;99242.13;;;5.49;100.00
28448;BME280;15675;52.870;-1.416;2023-12-04T05:47:55;99236.13;;;5.39;100.00
28448;BME280;15675;52.870;-1.416;2023-12-04T05:50:20;99242.09;;;5.30;100.00
28448;BME280;15675;52.870;-1.416;2023-12-04T05:52:46;99231.84;;;5.47;100.00
28448;BME280;15675;52.870;-1.416;2023-12-04T05:55:12;99226.66;;;5.35;100.00
28448;BME280;15675;52.870;-1.416;2023-12-04T05:57:40;99219.81;;;5.40;100.00
28448;BME280;15675;52.870;-1.416;2023-12-04T06:00:06;99218.09;;;5.38;100.00
28448;BME280;15675;52.870;-1.416;2023-12-04T06:02:43;99215.53;;;5.44;100.00
28448;BME280;15675;52.870;-1.416;2023-12-04T06:05:10;99208.66;;;5.52;100.00
28448;BME280;15675;52.870;-1.416;2023-12-04T06:07:36;99212.97;;;5.61;100.00
28448;BME280;15675;52.870;-1.416;2023-12-04T06:10:03;99203.53;;;5.64;100.00
28448;BME280;15675;52.870;-1.416;2023-12-04T06:12:31;99205.22;;;5.67;100.00
28448;BME280;15675;52.870;-1.416;2023-12-04T06:14:57;99203.53;;;5.46;100.00
28448;BME280;15675;52.870;-1.416;2023-12-04T06:17:24;99195.78;;;5.53;100.00
28448;BME280;15675;52.870;-1.416;2023-12-04T06:19:50;99188.09;;;5.66;100.00
28448;BME280;15675;52.870;-1.416;2023-12-04T06:22:15;99191.50;;;5.68;100.00
28448;BME280;15675;52.870;-1.416;2023-12-04T06:24:44;99190.63;;;5.78;100.00
28448;BME280;15675;52.870;-1.416;2023-12-04T06:27:15;99182.94;;;5.69;100.00
28448;BME280;15675;52.870;-1.416;2023-12-04T06:29:41;99187.22;;;5.61;100.00
28448;BME280;15675;52.870;-1.416;2023-12-04T06:32:07;99180.31;;;5.80;100.00
28448;BME280;15675;52.870;-1.416;2023-12-04T06:34:33;99178.63;;;5.73;100.00
28448;BME280;15675;52.870;-1.416;2023-12-04T06:36:59;99172.63;;;5.69;100.00
28448;BME280;15675;52.870;-1.416;2023-12-04T06:39:32;99176.06;;;5.51;100.00
28448;BME280;15675;52.870;-1.416;2023-12-04T06:41:58;99164.88;;;5.75;100.00
28448;BME280;15675;52.870;-1.416;2023-12-04T06:44:24;99159.75;;;5.43;100.00
28448;BME280;15675;52.870;-1.416;2023-12-04T06:46:50;99166.63;;;5.61;100.00
28448;BME280;15675;52.870;-1.416;2023-12-04T06:49:17;99156.31;;;5.48;100.00
28448;BME280;15675;52.870;-1.416;2023-12-04T06:51:43;99158.03;;;5.56;100.00
28448;BME280;15675;52.870;-1.416;2023-12-04T06:54:08;99162.31;;;5.63;100.00
28448;BME280;15675;52.870;-1.416;2023-12-04T06:56:34;99158.03;;;5.54;100.00
28448;BME280;15675;52.870;-1.416;2023-12-04T06:58:59;99159.78;;;5.50;100.00
28448;BME280;15675;52.870;-1.416;2023-12-04T07:01:25;99152.91;;;5.26;100.00
28448;BME280;15675;52.870;-1.416;2023-12-04T07:03:51;99151.16;;;5.51;100.00
28448;BME280;15675;52.870;-1.416;2023-12-04T07:06:17;99160.63;;;5.51;100.00
28448;BME280;15675;52.870;-1.416;2023-12-04T07:08:42;99155.47;;;5.63;100.00
28448;BME280;15675;52.870;-1.416;2023-12-04T07:11:08;99149.47;;;5.52;100.00
28448;BME280;15675;52.870;-1.416;2023-12-04T07:13:34;99155.47;;;5.62;100.00
28448;BME280;15675;52.870;-1.416;2023-12-04T07:16:00;99157.19;;;5.50;100.00
28448;BME280;15675;52.870;-1.416;2023-12-04T07:18:25;99158.03;;;5.37;100.00
28448;BME280;15675;52.870;-1.416;2023-12-04T07:20:51;99151.19;;;5.34;100.00
28448;BME280;15675;52.870;-1.416;2023-12-04T07:23:17;99160.59;;;5.39;100.00
28448;BME280;15675;52.870;-1.416;2023-12-04T07:25:42;99157.19;;;5.27;100.00
28448;BME280;15675;52.870;-1.416;2023-12-04T07:28:08;99152.06;;;5.49;100.00
28448;BME280;15675;52.870;-1.416;2023-12-04T07:30:33;99157.19;;;5.47;100.00
28448;BME280;15675;52.870;-1.416;2023-12-04T07:32:59;99158.06;;;5.42;100.00
28448;BME280;15675;52.870;-1.416;2023-12-04T07:35:25;99155.47;;;5.39;100.00
28448;BME280;15675;52.870;-1.416;2023-12-04T07:37:51;99151.19;;;5.47;100.00
28448;BME280;15675;52.870;-1.416;2023-12-04T07:40:17;99153.75;;;5.39;100.00
28448;BME280;15675;52.870;-1.416;2023-12-04T07:42:43;99158.91;;;5.39;100.00
28448;BME280;15675;52.870;-1.416;2023-12-04T07:45:09;99158.03;;;5.49;100.00
28448;BME280;15675;52.870;-1.416;2023-12-04T07:47:36;99152.91;;;5.29;100.00
28448;BME280;15675;52.870;-1.416;2023-12-04T07:50:02;99155.47;;;5.45;100.00
28448;BME280;15675;52.870;-1.416;2023-12-04T07:52:27;99154.59;;;5.60;100.00
28448;BME280;15675;52.870;-1.416;2023-12-04T07:54:53;99154.59;;;5.63;100.00
28448;BME280;15675;52.870;-1.416;2023-12-04T07:57:19;99162.34;;;5.29;100.00
28448;BME280;15675;52.870;-1.416;2023-12-04T07:59:44;99157.19;;;5.58;100.00
28448;BME280;15675;52.870;-1.416;2023-12-04T08:02:10;99158.03;;;5.54;100.00
28448;BME280;15675;52.870;-1.416;2023-12-04T08:04:35;99159.78;;;5.50;100.00
28448;BME280;15675;52.870;-1.416;2023-12-04T08:07:01;99156.31;;;5.67;100.00
28448;BME280;15675;52.870;-1.416;2023-12-04T08:09:27;99158.06;;;5.59;100.00
28448;BME280;15675;52.870;-1.416;2023-12-04T08:11:53;99152.03;;;5.70;100.00
28448;BME280;15675;52.870;-1.416;2023-12-04T08:14:18;99158.00;;;5.74;100.00
28448;BME280;15675;52.870;-1.416;2023-12-04T08:16:44;99152.03;;;5.58;100.00
28448;BME280;15675;52.870;-1.416;2023-12-04T08:19:09;99158.91;;;5.38;100.00
28448;BME280;15675;52.870;-1.416;2023-12-04T08:21:35;99151.16;;;5.50;100.00
28448;BME280;15675;52.870;-1.416;2023-12-04T08:24:00;99152.88;;;5.56;100.00
28448;BME280;15675;52.870;-1.416;2023-12-04T08:26:26;99157.19;;;5.32;100.00
28448;BME280;15675;52.870;-1.416;2023-12-04T08:28:52;99160.63;;;5.59;100.00
28448;BME280;15675;52.870;-1.416;2023-12-04T08:31:18;99158.88;;;5.76;100.00
28448;BME280;15675;52.870;-1.416;2023-12-04T08:33:44;99154.59;;;5.84;100.00
28448;BME280;15675;52.870;-1.416;2023-12-04T08:36:11;99155.41;;;5.91;100.00
28448;BME280;15675;52.870;-1.416;2023-12-04T08:38:36;99151.13;;;5.93;100.00
28448;BME280;15675;52.870;-1.416;2023-12-04T08:41:04;99158.03;;;5.99;100.00
28448;BME280;15675;52.870;-1.416;2023-12-04T08:43:30;99154.56;;;6.03;100.00
28448;BME280;15675;52.870;-1.416;2023-12-04T08:45:55;99146.88;;;5.83;100.00
28448;BME280;15675;52.870;-1.416;2023-12-04T08:48:21;99153.72;;;5.81;100.00
28448;BME280;15675;52.870;-1.416;2023-12-04T08:50:47;99152.88;;;5.77;100.00
28448;BME280;15675;52.870;-1.416;2023-12-04T08:53:14;99154.56;;;5.78;100.00
28448;BME280;15675;52.870;-1.416;2023-12-04T08:55:39;99151.16;;;5.81;100.00
28448;BME280;15675;52.870;-1.416;2023-12-04T08:58:05;99160.59;;;5.83;100.00
28448;BME280;15675;52.870;-1.416;2023-12-04T09:00:31;99158.03;;;5.65;100.00
28448;BME280;15675;52.870;-1.416;2023-12-04T09:02:57;99160.63;;;5.49;100.00
28448;BME280;15675;52.870;-1.416;2023-12-04T09:05:23;99159.75;;;5.69;100.00
28448;BME280;15675;52.870;-1.416;2023-12-04T09:07:48;99153.72;;;5.70;100.00
28448;BME280;15675;52.870;-1.416;2023-12-04T09:10:14;99158.03;;;5.65;100.00
28448;BME280;15675;52.870;-1.416;2023-12-04T09:12:40;99161.47;;;5.76;100.00
28448;BME280;15675;52.870;-1.416;2023-12-04T09:15:06;99158.00;;;5.90;100.00
28448;BME280;15675;52.870;-1.416;2023-12-04T09:17:31;99155.44;;;5.86;100.00
28448;BME280;15675;52.870;-1.416;2023-12-04T09:19:57;99157.19;;;5.70;100.00
28448;BME280;15675;52.870;-1.416;2023-12-04T09:22:23;99153.69;;;6.05;100.00
28448;BME280;15675;52.870;-1.416;2023-12-04T09:24:48;99150.28;;;5.71;100.00
28448;BME280;15675;52.870;-1.416;2023-12-04T09:27:13;99158.06;;;5.40;100.00
28448;BME280;15675;52.870;-1.416;2023-12-04T09:29:40;99155.44;;;5.83;100.00
28448;BME280;15675;52.870;-1.416;2023-12-04T09:32:08;99161.47;;;5.76;100.00
28448;BME280;15675;52.870;-1.416;2023-12-04T09:34:33;99162.28;;;5.91;100.00
28448;BME280;15675;52.870;-1.416;2023-12-04T09:36:59;99158.03;;;5.80;100.00
28448;BME280;15675;52.870;-1.416;2023-12-04T09:39:24;99157.16;;;5.74;100.00
28448;BME280;15675;52.870;-1.416;2023-12-04T09:41:50;99164.00;;;5.87;100.00
28448;BME280;15675;52.870;-1.416;2023-12-04T09:44:16;99158.03;;;5.56;100.00
28448;BME280;15675;52.870;-1.416;2023-12-04T09:46:42;99163.16;;;5.71;100.00
28448;BME280;15675;52.870;-1.416;2023-12-04T09:49:08;99165.75;;;5.71;100.00
28448;BME280;15675;52.870;-1.416;2023-12-04T09:51:34;99169.19;;;5.76;100.00
28448;BME280;15675;52.870;-1.416;2023-12-04T09:54:02;99160.59;;;5.77;100.00
28448;BME280;15675;52.870;-1.416;2023-12-04T09:56:29;99162.31;;;5.69;100.00
28448;BME280;15675;52.870;-1.416;2023-12-04T09:58:58;99165.72;;;6.03;100.00
28448;BME280;15675;52.870;-1.416;2023-12-04T10:01:27;99160.56;;;5.93;100.00
28448;BME280;15675;52.870;-1.416;2023-12-04T10:03:53;99166.59;;;5.79;100.00
28448;BME280;15675;52.870;-1.416;2023-12-04T10:06:19;99163.13;;;5.93;100.00
28448;BME280;15675;52.870;-1.416;2023-12-04T10:08:45;99155.47;;;5.62;100.00
28448;BME280;15675;52.870;-1.416;2023-12-04T10:11:13;99162.31;;;5.57;100.00
28448;BME280;15675;52.870;-1.416;2023-12-04T10:13:40;99161.44;;;5.67;100.00
28448;BME280;15675;52.870;-1.416;2023-12-04T10:16:06;99166.59;;;5.64;100.00
28448;BME280;15675;52.870;-1.416;2023-12-04T10:18:31;99167.47;;;5.63;100.00
28448;BME280;15675;52.870;-1.416;2023-12-04T10:20:58;99170.03;;;5.80;100.00
28448;BME280;15675;52.870;-1.416;2023-12-04T10:23:37;99170.91;;;5.80;100.00
28448;BME280;15675;52.870;-1.416;2023-12-04T10:26:04;99169.19;;;5.76;100.00
28448;BME280;15675;52.870;-1.416;2023-12-04T10:28:30;99169.16;;;5.70;100.00
28448;BME280;15675;52.870;-1.416;2023-12-04T10:30:55;99170.03;;;5.58;100.00
28448;BME280;15675;52.870;-1.416;2023-12-04T10:33:24;99167.47;;;5.75;100.00
28448;BME280;15675;52.870;-1.416;2023-12-04T10:35:51;99170.88;;;5.90;100.00
28448;BME280;15675;52.870;-1.416;2023-12-04T10:38:18;99165.72;;;5.90;100.00
28448;BME280;15675;52.870;-1.416;2023-12-04T10:40:43;99159.75;;;5.70;100.00
28448;BME280;15675;52.870;-1.416;2023-12-04T10:45:36;99160.56;;;5.91;100.00
28448;BME280;15675;52.870;-1.416;2023-12-04T10:48:03;99160.59;;;5.77;100.00
28448;BME280;15675;52.870;-1.416;2023-12-04T10:50:37;99160.59;;;5.97;100.00
28448;BME280;15675;52.870;-1.416;2023-12-04T10:53:07;99156.25;;;6.05;100.00
28448;BME280;15675;52.870;-1.416;2023-12-04T10:55:34;99153.72;;;6.01;100.00
28448;BME280;15675;52.870;-1.416;2023-12-04T10:58:08;99144.22;;;6.20;100.00
28448;BME280;15675;52.870;-1.416;2023-12-04T11:00:38;99146.00;;;5.79;100.00
28448;BME280;15675;52.870;-1.416;2023-12-04T11:03:08;99146.81;;;5.94;100.00
28448;BME280;15675;52.870;-1.416;2023-12-04T11:05:38;99144.25;;;5.98;100.00
28448;BME280;15675;52.870;-1.416;2023-12-04T11:08:06;99146.78;;;6.17;100.00
28448;BME280;15675;52.870;-1.416;2023-12-04T11:10:33;99151.97;;;5.94;100.00
28448;BME280;15675;52.870;-1.416;2023-12-04T11:13:06;99149.44;;;6.01;100.00
28448;BME280;15675;52.870;-1.416;2023-12-04T11:15:40;99147.66;;;6.17;100.00
28448;BME280;15675;52.870;-1.416;2023-12-04T11:18:09;99149.28;;;6.40;100.00
28448;BME280;15675;52.870;-1.416;2023-12-04T11:20:41;99147.66;;;6.17;100.00
28448;BME280;15675;52.870;-1.416;2023-12-04T11:23:09;99147.59;;;6.33;100.00
28448;BME280;15675;52.870;-1.416;2023-12-04T11:25:35;99145.16;;;5.97;100.00
28448;BME280;15675;52.870;-1.416;2023-12-04T11:28:02;99145.94;;;6.16;100.00
28448;BME280;15675;52.870;-1.416;2023-12-04T11:30:29;99143.34;;;6.16;100.00
28448;BME280;15675;52.870;-1.416;2023-12-04T11:32:55;99138.97;;;6.40;100.00
28448;BME280;15675;52.870;-1.416;2023-12-04T11:35:25;99143.38;;;6.12;100.00
28448;BME280;15675;52.870;-1.416;2023-12-04T11:37:52;99148.47;;;6.24;100.00
28448;BME280;15675;52.870;-1.416;2023-12-04T11:40:18;99149.28;;;6.40;100.00
28448;BME280;15675;52.870;-1.416;2023-12-04T11:42:44;99144.19;;;6.28;100.00
28448;BME280;15675;52.870;-1.416;2023-12-04T11:45:10;99139.03;;;6.18;100.00
28448;BME280;15675;52.870;-1.416;2023-12-04T11:47:55;99143.31;;;6.29;100.00
28448;BME280;15675;52.870;-1.416;2023-12-04T11:50:23;99148.41;;;6.44;100.00
28448;BME280;15675;52.870;-1.416;2023-12-04T11:52:50;99144.94;;;6.48;100.00
28448;BME280;15675;52.870;-1.416;2023-12-04T11:55:17;99130.38;;;6.39;100.00
28448;BME280;15675;52.870;-1.416;2023-12-04T11:57:44;99134.66;;;6.45;100.00
28448;BME280;15675;52.870;-1.416;2023-12-04T12:05:15;99132.94;;;6.49;100.00
28448;BME280;15675;52.870;-1.416;2023-12-04T12:07:40;99123.59;;;6.18;100.00
28448;BME280;15675;52.870;-1.416;2023-12-04T12:10:07;99127.06;;;6.05;100.00
28448;BME280;15675;52.870;-1.416;2023-12-04T12:12:33;99125.28;;;6.32;100.00
28448;BME280;15675;52.870;-1.416;2023-12-04T12:15:00;99127.88;;;6.29;100.00
28448;BME280;15675;52.870;-1.416;2023-12-04T12:17:26;99123.44;;;6.57;100.00
28448;BME280;15675;52.870;-1.416;2023-12-04T12:19:51;99134.63;;;6.50;100.00
28448;BME280;15675;52.870;-1.416;2023-12-04T12:22:17;99128.72;;;6.28;100.00
28448;BME280;15675;52.870;-1.416;2023-12-04T12:24:42;99130.38;;;6.44;100.00
28448;BME280;15675;52.870;-1.416;2023-12-04T12:27:08;99132.06;;;6.45;100.00
28448;BME280;15675;52.870;-1.416;2023-12-04T12:29:34;99126.13;;;6.29;100.00
28448;BME280;15675;52.870;-1.416;2023-12-04T12:31:59;99131.19;;;6.48;100.00
28448;BME280;15675;52.870;-1.416;2023-12-04T12:34:25;99141.50;;;6.51;100.00
28448;BME280;15675;52.870;-1.416;2023-12-04T12:36:52;99144.16;;;6.32;100.00
28448;BME280;15675;52.870;-1.416;2023-12-04T12:39:18;99136.38;;;6.43;100.00
28448;BME280;15675;52.870;-1.416;2023-12-04T12:41:51;99133.06;;;6.13;100.00
28448;BME280;15675;52.870;-1.416;2023-12-04T12:44:16;99135.59;;;6.27;100.00
28448;BME280;15675;52.870;-1.416;2023-12-04T12:46:47;99134.78;;;6.19;100.00
28448;BME280;15675;52.870;-1.416;2023-12-04T12:49:15;99135.56;;;6.36;100.00
28448;BME280;15675;52.870;-1.416;2023-12-04T12:51:41;99138.13;;;6.35;100.00